Time;durP1;ratioP1;P1;durP2;ratioP2;P2;SDS_P1;SDS_P2;PMS_P1;PMS_P2;Temp;Humidity;BMP_temperature;BMP_pressure;BME280_temperature;BME280_humidity;BME280_pressure;Samples;Min_cycle;Max_cycle;Signal;HPM_P1;HPM_P2
2022/12/08 00:01:12;;;;;;;14.57;12.98;;;0.80;99.90;;;;;;5014680;28;20022;-86
2022/12/08 00:03:38;;;;;;;16.35;13.60;;;0.90;99.90;;;;;;5031682;28;20663;-87
2022/12/08 00:11:36;;;;;;;14.25;12.85;;;0.70;99.90;;;;;;4998131;28;20672;-89
2022/12/08 00:14:02;;;;;;;13.15;11.90;;;0.80;99.90;;;;;;5018567;28;20030;-89
2022/12/08 00:16:27;;;;;;;15.35;13.82;;;0.70;99.90;;;;;;5014702;28;20061;-88
2022/12/08 00:18:53;;;;;;;14.27;12.48;;;0.80;99.90;;;;;;5016375;28;20053;-88
2022/12/08 00:21:18;;;;;;;13.18;11.98;;;0.70;99.90;;;;;;5018356;28;20088;-88
2022/12/08 00:23:44;;;;;;;13.05;11.85;;;0.70;99.90;;;;;;5010496;28;20036;-88
2022/12/08 00:26:10;;;;;;;14.40;12.07;;;0.80;99.90;;;;;;5014271;28;20039;-87
2022/12/08 00:28:36;;;;;;;14.18;12.68;;;0.70;99.90;;;;;;5012066;28;20539;-87
2022/12/08 00:31:09;;;;;;;19.73;12.30;;;0.70;99.90;;;;;;5018729;28;20037;-88
2022/12/08 00:33:35;;;;;;;13.27;11.68;;;0.70;99.90;;;;;;5016647;28;20033;-89
2022/12/08 00:36:13;;;;;;;14.52;12.90;;;0.80;99.90;;;;;;5014246;28;20118;-88
2022/12/08 00:38:40;;;;;;;12.65;11.07;;;0.80;99.90;;;;;;5017871;28;20014;-88
2022/12/08 00:41:14;;;;;;;13.57;11.77;;;0.70;99.90;;;;;;5013524;28;20155;-89
2022/12/08 00:43:41;;;;;;;14.35;12.32;;;0.80;99.90;;;;;;5019804;28;20053;-90
2022/12/08 00:46:06;;;;;;;11.73;10.52;;;0.80;99.90;;;;;;5013414;28;20109;-89
2022/12/08 00:48:32;;;;;;;12.43;10.38;;;0.80;99.90;;;;;;5019248;28;20124;-87
2022/12/08 00:50:58;;;;;;;14.52;12.23;;;0.80;99.90;;;;;;5016651;28;20041;-87
2022/12/08 00:53:23;;;;;;;13.70;12.43;;;0.80;99.90;;;;;;5014673;28;20045;-88
2022/12/08 00:55:49;;;;;;;15.45;13.35;;;0.90;99.90;;;;;;5002104;28;20034;-89
2022/12/08 00:58:15;;;;;;;12.73;11.45;;;1.00;99.90;;;;;;4993584;28;20033;-89
2022/12/08 01:00:41;;;;;;;15.98;10.98;;;0.90;99.90;;;;;;5010032;28;20034;-88
2022/12/08 01:03:11;;;;;;;16.83;12.90;;;0.80;99.90;;;;;;5012817;28;20129;-89
2022/12/08 01:05:37;;;;;;;14.33;10.53;;;0.90;99.90;;;;;;5018337;28;20109;-87
2022/12/08 01:08:07;;;;;;;15.63;11.77;;;0.80;99.90;;;;;;5019087;28;20112;-88
2022/12/08 01:10:36;;;;;;;11.55;10.18;;;0.80;99.90;;;;;;5019559;28;20065;-89
2022/12/08 01:13:03;;;;;;;18.15;11.43;;;0.80;99.90;;;;;;5020905;28;20559;-87
2022/12/08 01:15:28;;;;;;;17.23;11.68;;;0.70;99.90;;;;;;5015010;28;20463;-88
2022/12/08 01:17:54;;;;;;;12.57;11.38;;;0.70;99.90;;;;;;5016418;28;20065;-88
2022/12/08 01:20:20;;;;;;;13.32;11.93;;;0.80;99.90;;;;;;5020871;28;20558;-88
2022/12/08 01:22:45;;;;;;;14.75;11.00;;;0.70;99.90;;;;;;5022283;28;20098;-89
2022/12/08 01:25:11;;;;;;;18.45;11.25;;;0.70;99.90;;;;;;5018785;28;20033;-89
2022/12/08 01:27:37;;;;;;;15.63;11.02;;;0.60;99.90;;;;;;5017038;28;20040;-89
2022/12/08 01:30:03;;;;;;;18.65;12.80;;;0.60;99.90;;;;;;5005202;28;20057;-89
2022/12/08 01:32:29;;;;;;;13.88;11.88;;;0.60;99.90;;;;;;5014521;28;20069;-89
2022/12/08 01:34:55;;;;;;;12.93;11.18;;;0.70;99.90;;;;;;5018270;28;20026;-88
2022/12/08 01:37:21;;;;;;;14.98;11.90;;;0.70;99.90;;;;;;5019324;28;20033;-88
2022/12/08 01:39:46;;;;;;;15.15;10.32;;;0.70;99.90;;;;;;5015556;28;20056;-88
2022/12/08 01:42:22;;;;;;;12.18;11.10;;;0.60;99.90;;;;;;5005125;28;20091;-88
2022/12/08 01:45:01;;;;;;;12.75;11.55;;;0.60;99.90;;;;;;5011382;28;20037;-88
2022/12/08 01:47:36;;;;;;;13.80;12.32;;;0.60;99.90;;;;;;5021098;28;20451;-88
2022/12/08 01:50:09;;;;;;;12.18;10.93;;;0.50;99.90;;;;;;5016617;28;20038;-87
2022/12/08 01:52:39;;;;;;;15.57;10.85;;;0.60;99.90;;;;;;5026261;28;20030;-88
2022/12/08 01:55:23;;;;;;;17.45;13.20;;;0.50;99.90;;;;;;5007341;28;20026;-88
2022/12/08 01:57:56;;;;;;;16.33;12.10;;;0.60;99.90;;;;;;5013490;28;20034;-89
2022/12/08 02:00:22;;;;;;;15.77;11.98;;;0.60;99.90;;;;;;5014949;28;20050;-88
2022/12/08 02:02:58;;;;;;;20.10;12.18;;;0.50;99.90;;;;;;5018801;28;20079;-90
2022/12/08 02:05:35;;;;;;;17.77;12.30;;;0.50;99.90;;;;;;5022215;28;20116;-88
2022/12/08 02:08:07;;;;;;;14.13;12.30;;;0.50;99.90;;;;;;5011623;28;20030;-89
2022/12/08 02:10:37;;;;;;;15.95;13.10;;;0.50;99.90;;;;;;5017793;28;20053;-86
2022/12/08 02:13:04;;;;;;;16.50;13.32;;;0.40;99.90;;;;;;4996716;28;20036;-89
2022/12/08 02:15:33;;;;;;;18.90;14.13;;;0.40;99.90;;;;;;5016876;28;20037;-90
2022/12/08 02:18:08;;;;;;;13.52;12.23;;;0.40;99.90;;;;;;5013688;28;20018;-88
2022/12/08 02:20:48;;;;;;;13.80;11.55;;;0.30;99.90;;;;;;5020956;28;20030;-90
2022/12/08 02:23:42;;;;;;;14.07;12.68;;;0.30;99.90;;;;;;5018388;28;20140;-88
2022/12/08 02:26:29;;;;;;;12.70;11.45;;;0.20;99.90;;;;;;5009210;28;20040;-90
2022/12/08 02:29:14;;;;;;;13.13;11.00;;;0.00;99.90;;;;;;5018568;28;20046;-88
2022/12/08 02:32:04;;;;;;;17.33;12.10;;;0.00;99.90;;;;;;5015349;28;20040;-85
2022/12/08 02:34:39;;;;;;;12.27;11.05;;;0.00;99.90;;;;;;5016885;28;20034;-88
2022/12/08 02:37:27;;;;;;;13.75;10.55;;;-0.20;99.90;;;;;;5021131;28;20079;-87
2022/12/08 02:40:21;;;;;;;16.08;11.63;;;-0.40;99.90;;;;;;5009148;28;20040;-88
2022/12/08 02:43:00;;;;;;;10.68;9.68;;;-0.60;99.90;;;;;;5015464;28;20037;-87
2022/12/08 02:46:08;;;;;;;17.15;11.40;;;-0.70;99.90;;;;;;5018879;28;20500;-84
2022/12/08 02:48:34;;;;;;;19.15;12.75;;;-0.90;99.90;;;;;;5006715;28;20080;-88
2022/12/08 02:51:00;;;;;;;15.55;14.05;;;-0.90;99.90;;;;;;4997029;28;20089;-87
2022/12/08 02:53:30;;;;;;;16.75;15.02;;;-1.00;99.90;;;;;;5013336;28;20765;-89
2022/12/08 02:56:04;;;;;;;17.50;15.63;;;-1.00;99.90;;;;;;5015664;28;20026;-88
2022/12/08 02:58:42;;;;;;;18.48;16.58;;;-1.10;99.90;;;;;;5014504;28;20037;-88
2022/12/08 03:01:32;;;;;;;18.50;16.80;;;-1.10;99.90;;;;;;5016913;28;20366;-86
2022/12/08 03:04:20;;;;;;;18.15;16.35;;;-1.00;99.90;;;;;;5018036;28;20120;-86
2022/12/08 03:07:12;;;;;;;17.73;16.02;;;-1.00;99.90;;;;;;5019526;28;20034;-83
2022/12/08 03:09:57;;;;;;;20.08;16.98;;;-1.00;99.90;;;;;;5011126;28;20048;-89
2022/12/08 03:12:35;;;;;;;20.98;19.33;;;-1.00;99.90;;;;;;5014570;28;20037;-89
2022/12/08 03:15:08;;;;;;;22.90;20.90;;;-1.00;99.90;;;;;;5019186;28;20053;-84
2022/12/08 03:17:37;;;;;;;25.05;22.08;;;-1.00;99.90;;;;;;5015901;28;20038;-85
2022/12/08 03:20:08;;;;;;;22.55;19.67;;;-1.00;99.90;;;;;;5021370;28;20046;-85
2022/12/08 03:22:36;;;;;;;22.90;20.80;;;-1.00;99.90;;;;;;5011920;28;20030;-86
2022/12/08 03:25:01;;;;;;;22.13;19.98;;;-1.00;99.90;;;;;;5023623;28;20040;-88
2022/12/08 03:27:30;;;;;;;23.52;21.45;;;-1.00;99.90;;;;;;5014218;28;20038;-86
2022/12/08 03:30:04;;;;;;;22.50;20.55;;;-1.00;99.90;;;;;;5017006;28;20053;-88
2022/12/08 03:32:54;;;;;;;22.45;20.45;;;-0.90;99.90;;;;;;5040838;28;20252;-89
2022/12/08 03:35:30;;;;;;;21.63;19.77;;;-0.90;99.90;;;;;;5014312;28;20025;-88
2022/12/08 03:38:07;;;;;;;22.65;20.55;;;-0.90;99.90;;;;;;5020434;28;20057;-85
2022/12/08 03:40:33;;;;;;;20.80;18.80;;;-1.00;99.90;;;;;;5013421;28;20026;-89
2022/12/08 03:42:59;;;;;;;23.05;21.10;;;-1.00;99.90;;;;;;5017255;28;20026;-85
2022/12/08 03:45:27;;;;;;;23.77;21.58;;;-1.00;99.90;;;;;;5014324;28;20032;-88
2022/12/08 03:47:54;;;;;;;21.15;19.52;;;-1.00;99.90;;;;;;4997771;28;20029;-86
2022/12/08 03:50:20;;;;;;;22.65;20.45;;;-1.00;99.90;;;;;;5016073;28;20034;-88
2022/12/08 03:52:45;;;;;;;18.70;16.98;;;-1.00;99.90;;;;;;5019549;28;20037;-88
2022/12/08 03:55:11;;;;;;;20.30;18.30;;;-0.80;99.90;;;;;;5019079;28;20029;-86
2022/12/08 03:57:38;;;;;;;21.45;19.85;;;-0.80;99.90;;;;;;5004679;28;20436;-85
2022/12/08 04:00:07;;;;;;;22.02;20.02;;;-0.80;99.90;;;;;;5022644;28;20086;-87
2022/12/08 04:02:33;;;;;;;22.65;19.80;;;-0.70;99.90;;;;;;5035024;28;20041;-86
2022/12/08 04:04:59;;;;;;;22.08;20.17;;;-0.70;99.90;;;;;;5017216;28;20041;-89
2022/12/08 04:07:25;;;;;;;23.40;21.10;;;-0.70;99.90;;;;;;4999122;28;20030;-85
2022/12/08 04:09:51;;;;;;;21.05;19.58;;;-0.60;99.90;;;;;;5005323;28;20105;-83
2022/12/08 04:12:17;;;;;;;22.55;21.05;;;-0.40;99.90;;;;;;5016500;28;20078;-88
2022/12/08 04:14:44;;;;;;;21.85;20.25;;;-0.40;99.90;;;;;;4992188;28;20416;-84
2022/12/08 04:17:09;;;;;;;23.35;21.27;;;-0.40;99.90;;;;;;5001007;28;20029;-87
2022/12/08 04:19:35;;;;;;;22.80;20.80;;;-0.40;99.90;;;;;;5010057;28;20042;-86
2022/12/08 04:22:01;;;;;;;22.05;20.35;;;-0.50;99.90;;;;;;5012754;28;20424;-86
2022/12/08 04:24:26;;;;;;;23.67;21.30;;;-0.50;99.90;;;;;;5015984;28;20107;-86
2022/12/08 04:26:53;;;;;;;21.30;19.92;;;-0.60;99.90;;;;;;5009582;28;20067;-84
2022/12/08 04:29:18;;;;;;;24.08;21.83;;;-0.60;99.90;;;;;;5019741;28;20041;-87
2022/12/08 04:31:44;;;;;;;21.65;19.90;;;-0.50;99.90;;;;;;5011922;28;20114;-88
2022/12/08 04:34:10;;;;;;;22.55;20.77;;;-0.60;99.90;;;;;;4986872;28;20034;-87
2022/12/08 04:36:36;;;;;;;21.85;20.13;;;-0.60;99.90;;;;;;5013880;28;20090;-85
2022/12/08 04:39:03;;;;;;;21.73;19.75;;;-0.60;99.90;;;;;;5016614;28;20034;-85
2022/12/08 04:41:28;;;;;;;21.02;19.20;;;-0.60;99.90;;;;;;5004946;28;20033;-88
2022/12/08 04:43:54;;;;;;;21.30;19.60;;;-0.70;99.90;;;;;;5015541;28;20030;-85
2022/12/08 04:46:19;;;;;;;19.25;17.58;;;-0.60;99.90;;;;;;5025888;28;20385;-85
2022/12/08 04:48:45;;;;;;;20.17;18.25;;;-0.60;99.90;;;;;;5016158;28;20037;-88
2022/12/08 04:51:16;;;;;;;18.52;17.23;;;-0.70;99.90;;;;;;4985555;28;20457;-89
2022/12/08 04:53:42;;;;;;;;;;;-0.70;99.90;;;;;;5010977;28;20029;-86
2022/12/08 04:56:16;;;;;;;13.20;11.93;;;-0.80;99.90;;;;;;5018988;28;20449;-87
2022/12/08 04:58:42;;;;;;;15.68;14.10;;;-0.80;99.90;;;;;;5015847;28;20078;-85
2022/12/08 05:01:08;;;;;;;18.17;14.43;;;-0.80;99.90;;;;;;5016845;28;20057;-85
2022/12/08 05:03:33;;;;;;;18.00;14.60;;;-0.90;99.90;;;;;;5024041;28;20057;-86
2022/12/08 05:06:01;;;;;;;16.88;15.25;;;-1.10;99.90;;;;;;5013771;28;20493;-84
2022/12/08 05:08:28;;;;;;;17.48;16.02;;;-1.00;99.90;;;;;;5016328;28;20265;-85
2022/12/08 05:11:00;;;;;;;16.75;15.23;;;-1.10;99.90;;;;;;5011414;28;20041;-86
2022/12/08 05:13:25;;;;;;;17.75;16.08;;;-1.20;99.90;;;;;;5016769;28;20041;-86
2022/12/08 05:15:51;;;;;;;17.77;16.00;;;-1.30;99.90;;;;;;5005982;28;20083;-86
2022/12/08 05:18:16;;;;;;;18.75;16.85;;;-1.30;99.90;;;;;;5015996;28;20112;-86
2022/12/08 05:20:42;;;;;;;18.42;16.83;;;-1.40;99.90;;;;;;5026022;28;20022;-87
2022/12/08 05:23:08;;;;;;;19.55;17.75;;;-1.40;99.90;;;;;;5034520;28;20048;-86
2022/12/08 05:25:35;;;;;;;18.35;16.73;;;-1.40;99.90;;;;;;5012541;28;20037;-85
2022/12/08 05:28:02;;;;;;;18.90;16.92;;;-1.50;99.90;;;;;;5019910;28;20033;-85
2022/12/08 05:30:28;;;;;;;17.83;15.98;;;-1.60;99.90;;;;;;5016866;28;20054;-85
2022/12/08 05:32:55;;;;;;;19.55;17.45;;;-1.60;99.90;;;;;;5016694;28;20099;-87
2022/12/08 05:35:21;;;;;;;19.83;17.30;;;-1.70;99.90;;;;;;5007986;28;20027;-90
2022/12/08 05:37:47;;;;;;;30.30;26.30;;;-1.70;99.90;;;;;;5020565;28;20039;-87
2022/12/08 05:40:12;;;;;;;30.38;22.10;;;-1.80;99.90;;;;;;5014283;28;20030;-87
2022/12/08 05:42:39;;;;;;;18.80;17.30;;;-1.80;99.90;;;;;;5018480;28;20042;-84
2022/12/08 05:45:05;;;;;;;21.63;19.73;;;-1.60;99.90;;;;;;5027036;28;20096;-87
2022/12/08 05:47:31;;;;;;;19.00;17.40;;;-1.70;99.90;;;;;;4983816;28;20488;-81
2022/12/08 05:50:05;;;;;;;19.63;18.23;;;-1.60;99.90;;;;;;5023053;28;20088;-87
2022/12/08 05:52:32;;;;;;;17.73;16.20;;;-1.60;99.90;;;;;;5020317;28;20056;-84
2022/12/08 05:54:57;;;;;;;20.65;18.75;;;-1.80;99.90;;;;;;5025634;28;20040;-85
2022/12/08 05:57:24;;;;;;;18.55;16.83;;;-1.80;99.90;;;;;;5024675;28;20021;-88
2022/12/08 06:00:02;;;;;;;18.55;17.00;;;-1.90;99.90;;;;;;5029211;28;20091;-90
2022/12/08 06:02:27;;;;;;;17.38;15.93;;;-1.90;99.90;;;;;;5027434;28;20037;-79
2022/12/08 06:04:53;;;;;;;18.67;16.85;;;-1.90;99.90;;;;;;5040954;28;20030;-83
2022/12/08 06:07:20;;;;;;;20.38;18.52;;;-2.00;99.90;;;;;;5024310;28;20038;-88
2022/12/08 06:09:46;;;;;;;21.08;18.90;;;-1.90;99.90;;;;;;5019275;28;20080;-80
2022/12/08 06:12:18;;;;;;;20.05;18.23;;;-1.90;99.90;;;;;;5014884;28;20033;-86
2022/12/08 06:14:58;;;;;;;18.40;16.67;;;-2.00;99.90;;;;;;5009839;28;20053;-88
2022/12/08 06:17:34;;;;;;;;;;;-2.00;99.90;;;;;;5028673;28;20033;-87
2022/12/08 06:20:03;;;;;;;13.88;12.02;;;-2.00;99.90;;;;;;5035076;28;20432;-86
2022/12/08 06:22:30;;;;;;;18.63;14.43;;;-2.00;99.90;;;;;;5020081;28;20048;-80
2022/12/08 06:24:55;;;;;;;17.83;15.88;;;-2.10;99.90;;;;;;5025360;28;20042;-80
2022/12/08 06:27:21;;;;;;;18.15;16.63;;;-2.10;99.90;;;;;;5020638;28;20041;-78
2022/12/08 06:29:46;;;;;;;17.75;16.25;;;-2.20;99.90;;;;;;5021297;28;20061;-83
2022/12/08 06:32:12;;;;;;;18.88;16.90;;;-2.30;99.90;;;;;;5017375;28;20034;-79
2022/12/08 06:34:38;;;;;;;16.83;15.13;;;-2.20;99.90;;;;;;5015645;28;20057;-79
2022/12/08 06:37:03;;;;;;;19.80;17.15;;;-2.00;99.90;;;;;;4979696;28;20037;-80
2022/12/08 06:39:29;;;;;;;18.60;16.50;;;-1.80;99.90;;;;;;5009269;28;20688;-78
2022/12/08 06:44:39;;;;;;;18.33;16.42;;;-1.90;99.90;;;;;;5013450;28;20047;-79
2022/12/08 06:47:04;;;;;;;18.58;16.77;;;-2.00;99.90;;;;;;4998976;28;20471;-78
2022/12/08 06:49:30;;;;;;;20.90;17.52;;;-2.10;99.90;;;;;;5014218;28;20034;-81
2022/12/08 06:51:55;;;;;;;19.00;17.25;;;-2.10;99.90;;;;;;5020364;28;20037;-79
2022/12/08 06:54:21;;;;;;;23.63;19.40;;;-2.20;99.90;;;;;;5022820;28;20089;-79
2022/12/08 06:56:47;;;;;;;20.58;18.58;;;-2.20;99.90;;;;;;5013524;28;20592;-81
2022/12/08 06:59:13;;;;;;;17.33;15.93;;;-2.20;99.90;;;;;;5018161;28;20053;-80
2022/12/08 07:01:39;;;;;;;18.85;17.00;;;-2.20;99.90;;;;;;5015929;28;20440;-80
2022/12/08 07:04:04;;;;;;;18.17;16.65;;;-2.10;99.90;;;;;;5035194;28;20038;-79
2022/12/08 07:06:30;;;;;;;22.83;17.05;;;-2.00;99.90;;;;;;4998949;28;20099;-81
2022/12/08 07:08:55;;;;;;;21.35;18.98;;;-2.10;99.90;;;;;;5012553;28;20053;-79
2022/12/08 07:11:21;;;;;;;22.75;19.20;;;-2.00;99.90;;;;;;5006843;28;20109;-78
2022/12/08 07:13:47;;;;;;;27.65;20.27;;;-2.00;99.90;;;;;;5005238;28;20134;-81
2022/12/08 07:16:12;;;;;;;19.75;17.83;;;-1.80;99.90;;;;;;4978986;28;20491;-78
2022/12/08 07:18:38;;;;;;;20.92;19.05;;;-1.90;99.90;;;;;;5016989;28;20038;-79
2022/12/08 07:21:10;;;;;;;19.95;18.25;;;-1.90;99.90;;;;;;5009291;28;20412;-79
2022/12/08 07:23:36;;;;;;;20.48;18.88;;;-1.70;99.90;;;;;;5017124;28;20030;-82
2022/12/08 07:26:04;;;;;;;19.75;18.17;;;-1.60;99.90;;;;;;5012735;28;20026;-78
2022/12/08 07:28:34;;;;;;;25.88;20.45;;;-1.50;99.90;;;;;;5016077;28;20057;-80
2022/12/08 07:31:00;;;;;;;18.98;17.25;;;-1.50;99.90;;;;;;5010855;28;20034;-80
2022/12/08 07:33:26;;;;;;;18.38;16.83;;;-1.40;99.90;;;;;;5000806;28;20034;-83
2022/12/08 07:35:56;;;;;;;19.85;17.55;;;-1.30;99.90;;;;;;5010640;28;20515;-81
2022/12/08 07:38:23;;;;;;;17.55;16.05;;;-1.00;99.90;;;;;;4996405;28;20043;-82
2022/12/08 07:40:49;;;;;;;21.33;19.10;;;-0.80;99.90;;;;;;5004019;28;20061;-81
2022/12/08 07:43:14;;;;;;;20.92;18.27;;;-1.00;99.90;;;;;;5012464;28;20068;-81
2022/12/08 07:45:40;;;;;;;19.48;17.77;;;-1.10;99.90;;;;;;5023099;28;20538;-83
2022/12/08 07:48:06;;;;;;;19.50;17.85;;;-0.90;99.90;;;;;;5008283;28;20053;-82
2022/12/08 07:50:32;;;;;;;31.83;23.30;;;-0.90;99.90;;;;;;5017040;28;20034;-84
2022/12/08 07:52:58;;;;;;;26.33;23.38;;;-0.80;99.90;;;;;;5018144;28;20030;-82
2022/12/08 07:55:24;;;;;;;28.52;25.08;;;-0.60;99.90;;;;;;4998626;28;20056;-81
2022/12/08 07:57:50;;;;;;;24.52;21.48;;;-0.50;99.90;;;;;;5003137;28;20026;-83
2022/12/08 08:00:16;;;;;;;22.70;20.55;;;-0.50;99.90;;;;;;5011559;28;20057;-83
2022/12/08 08:02:42;;;;;;;16.42;15.00;;;-0.50;99.90;;;;;;5020790;28;20029;-85
2022/12/08 08:05:09;;;;;;;18.17;16.67;;;-0.70;99.90;;;;;;4999154;28;20037;-84
2022/12/08 08:07:35;;;;;;;20.52;18.60;;;-0.80;99.90;;;;;;5018132;28;20061;-84
2022/12/08 08:10:02;;;;;;;20.33;18.50;;;-0.80;99.90;;;;;;5017638;28;20056;-81
2022/12/08 08:12:28;;;;;;;20.10;18.30;;;-0.60;99.90;;;;;;5013197;28;20051;-79
2022/12/08 08:14:54;;;;;;;20.35;18.73;;;-0.70;99.90;;;;;;5016368;28;20033;-80
2022/12/08 08:17:19;;;;;;;25.88;23.38;;;-0.40;99.90;;;;;;4992076;28;20053;-83
2022/12/08 08:19:45;;;;;;;25.38;22.95;;;-0.40;99.90;;;;;;5019883;28;20033;-83
2022/12/08 08:22:14;;;;;;;23.05;20.63;;;-0.20;99.90;;;;;;5011118;28;20081;-81
2022/12/08 08:24:40;;;;;;;18.33;15.95;;;-0.20;99.90;;;;;;5013750;28;20025;-85
2022/12/08 08:27:06;;;;;;;18.75;15.18;;;-0.20;99.90;;;;;;5011490;28;20026;-84
2022/12/08 08:29:31;;;;;;;18.35;15.65;;;-0.20;99.90;;;;;;4988560;28;20050;-84
2022/12/08 08:31:57;;;;;;;19.35;17.40;;;-0.20;99.90;;;;;;5016689;28;20122;-84
2022/12/08 08:34:22;;;;;;;19.95;18.02;;;-0.20;99.90;;;;;;4996376;28;20160;-80
2022/12/08 08:36:48;;;;;;;19.17;15.80;;;-0.10;99.90;;;;;;5014061;28;20033;-86
2022/12/08 08:39:14;;;;;;;17.88;13.25;;;-0.10;99.90;;;;;;5014858;28;20491;-83
2022/12/08 08:41:42;;;;;;;18.67;16.10;;;0.00;99.90;;;;;;5013354;28;20067;-81
2022/12/08 08:44:07;;;;;;;18.42;13.25;;;0.00;99.90;;;;;;5002063;28;20026;-81
2022/12/08 08:46:33;;;;;;;22.65;14.82;;;-0.10;99.90;;;;;;5015222;28;20459;-84
2022/12/08 08:48:59;;;;;;;18.52;16.70;;;-0.10;99.90;;;;;;5020362;28;20051;-80
2022/12/08 08:51:25;;;;;;;18.27;13.10;;;0.10;99.90;;;;;;5015583;28;20029;-82
2022/12/08 08:53:51;;;;;;;20.65;16.13;;;0.10;99.90;;;;;;5018485;28;20040;-82
2022/12/08 08:56:18;;;;;;;17.13;15.18;;;0.20;99.90;;;;;;5000968;28;20124;-84
2022/12/08 08:58:45;;;;;;;20.23;17.58;;;0.20;99.90;;;;;;5015480;28;20017;-80
2022/12/08 09:01:20;;;;;;;14.10;12.65;;;0.30;99.90;;;;;;5019669;28;20038;-86
2022/12/08 09:03:46;;;;;;;17.20;13.35;;;0.20;99.90;;;;;;4998593;28;20411;-85
2022/12/08 09:06:13;;;;;;;15.35;13.82;;;0.30;99.90;;;;;;5020170;28;20075;-81
2022/12/08 09:08:40;;;;;;;17.10;13.77;;;0.30;99.90;;;;;;5014220;28;20111;-84
2022/12/08 09:11:07;;;;;;;18.20;16.40;;;0.40;99.90;;;;;;5016414;28;20046;-86
2022/12/08 09:13:33;;;;;;;22.40;12.70;;;0.50;99.90;;;;;;5011147;28;20034;-85
2022/12/08 09:16:04;;;;;;;21.50;16.67;;;0.50;99.90;;;;;;4994489;28;20064;-81
2022/12/08 09:18:30;;;;;;;15.85;12.88;;;0.80;99.90;;;;;;5018022;28;20057;-84
2022/12/08 09:21:02;;;;;;;18.10;14.00;;;0.80;99.90;;;;;;5003145;28;20061;-83
2022/12/08 09:23:27;;;;;;;26.52;14.40;;;0.80;99.90;;;;;;5010864;28;20044;-82
2022/12/08 09:25:53;;;;;;;16.92;13.82;;;0.80;99.90;;;;;;5017449;28;20033;-85
2022/12/08 09:28:18;;;;;;;14.27;12.82;;;0.60;99.90;;;;;;5017651;28;20454;-81
2022/12/08 09:30:45;;;;;;;13.68;12.10;;;0.70;99.90;;;;;;5019614;28;20038;-82
2022/12/08 09:33:11;;;;;;;15.32;12.70;;;0.50;99.90;;;;;;4988493;28;20490;-84
2022/12/08 09:35:37;;;;;;;19.73;14.52;;;0.80;99.90;;;;;;5025182;28;20112;-81
2022/12/08 09:38:03;;;;;;;13.38;11.43;;;0.90;99.90;;;;;;5043297;28;20045;-82
2022/12/08 09:40:35;;;;;;;15.50;11.00;;;0.90;99.90;;;;;;5019733;28;20694;-81
2022/12/08 09:43:32;;;;;;;14.05;11.75;;;1.00;99.90;;;;;;5019828;28;20117;-81
2022/12/08 09:45:59;;;;;;;13.13;9.95;;;0.90;99.90;;;;;;5005733;28;20037;-82
2022/12/08 09:48:34;;;;;;;17.58;12.13;;;0.90;99.90;;;;;;5020013;28;20037;-79
2022/12/08 09:51:00;;;;;;;11.98;10.57;;;1.00;99.90;;;;;;5013680;28;20033;-85
2022/12/08 09:53:48;;;;;;;21.20;15.77;;;1.00;99.90;;;;;;5022274;28;20718;-84
2022/12/08 09:56:23;;;;;;;15.90;11.60;;;1.00;99.90;;;;;;5010046;28;20026;-83
2022/12/08 09:58:51;;;;;;;13.07;11.07;;;1.00;99.90;;;;;;5012887;28;20038;-81
2022/12/08 10:01:19;;;;;;;11.55;10.32;;;1.20;99.90;;;;;;5008628;28;20109;-81
2022/12/08 10:03:45;;;;;;;13.23;10.52;;;1.40;99.90;;;;;;4999690;28;20115;-81
2022/12/08 10:06:19;;;;;;;16.17;10.85;;;1.20;99.90;;;;;;4987550;28;20057;-81
2022/12/08 10:09:11;;;;;;;12.43;10.35;;;1.10;99.90;;;;;;5005883;28;20099;-81
2022/12/08 10:12:06;;;;;;;13.70;11.07;;;1.00;99.90;;;;;;4999815;28;20038;-80
2022/12/08 10:14:49;;;;;;;14.90;10.65;;;0.90;99.90;;;;;;5008936;28;20088;-82
2022/12/08 10:17:39;;;;;;;20.00;11.70;;;1.00;99.90;;;;;;5035192;28;20118;-84
2022/12/08 10:20:15;;;;;;;12.57;11.25;;;1.20;99.90;;;;;;5011424;28;20139;-82
2022/12/08 10:22:42;;;;;;;18.85;11.35;;;1.30;99.90;;;;;;5011658;28;20030;-81
2022/12/08 10:25:21;;;;;;;12.57;11.27;;;1.30;99.90;;;;;;5007423;28;20118;-81
2022/12/08 10:27:53;;;;;;;14.27;11.38;;;1.20;99.90;;;;;;5008688;28;20496;-84
2022/12/08 10:30:20;;;;;;;11.35;10.15;;;1.10;99.90;;;;;;5016850;28;20054;-83
2022/12/08 10:32:49;;;;;;;12.80;10.57;;;1.10;99.90;;;;;;5009969;28;20026;-81
2022/12/08 10:35:17;;;;;;;13.80;10.23;;;1.00;99.90;;;;;;5013946;28;20502;-79
2022/12/08 10:37:58;;;;;;;12.43;10.18;;;1.20;99.90;;;;;;5017172;28;20048;-82
2022/12/08 10:40:34;;;;;;;11.52;9.98;;;1.20;99.90;;;;;;5013757;28;20072;-81
2022/12/08 10:42:59;;;;;;;15.45;9.60;;;1.30;99.90;;;;;;5033673;28;20519;-81
2022/12/08 10:45:37;;;;;;;17.42;11.43;;;1.60;99.90;;;;;;5024718;28;20117;-82
2022/12/08 10:48:11;;;;;;;10.98;9.30;;;1.50;99.90;;;;;;5013283;28;20037;-81
2022/12/08 10:50:57;;;;;;;15.75;10.98;;;1.50;99.90;;;;;;5023162;28;20037;-83
2022/12/08 10:53:32;;;;;;;12.18;10.68;;;1.50;99.90;;;;;;5009733;28;20026;-80
2022/12/08 10:56:01;;;;;;;12.90;10.18;;;1.70;99.90;;;;;;5019829;28;20040;-81
2022/12/08 10:58:41;;;;;;;14.98;11.18;;;1.80;99.90;;;;;;5019148;28;20169;-83
2022/12/08 11:01:18;;;;;;;11.53;10.27;;;2.00;99.90;;;;;;5016534;28;20045;-81
2022/12/08 11:03:50;;;;;;;16.13;9.55;;;2.20;99.90;;;;;;5020081;28;20592;-81
2022/12/08 11:06:41;;;;;;;17.73;12.95;;;2.20;99.90;;;;;;5021554;28;20151;-84
2022/12/08 11:09:18;;;;;;;;;;;2.30;99.90;;;;;;5018699;28;20045;-83
2022/12/08 11:11:46;;;;;;;16.67;12.52;;;2.30;99.90;;;;;;5014762;28;19913;-82
2022/12/08 11:14:20;;;;;;;13.05;10.50;;;2.30;99.90;;;;;;5023847;28;20049;-81
2022/12/08 11:16:46;;;;;;;17.48;13.50;;;2.30;99.90;;;;;;5013295;28;20096;-84
2022/12/08 11:19:17;;;;;;;13.63;10.80;;;2.30;99.90;;;;;;5024490;28;20743;-84
2022/12/08 11:21:44;;;;;;;10.88;9.93;;;2.40;99.50;;;;;;5015534;28;20048;-83
2022/12/08 11:24:13;;;;;;;9.80;8.43;;;2.50;99.00;;;;;;5019103;28;20037;-84
2022/12/08 11:26:47;;;;;;;14.25;9.63;;;2.50;98.50;;;;;;5017809;28;20034;-84
2022/12/08 11:29:13;;;;;;;9.95;9.05;;;2.40;98.00;;;;;;5017180;28;20110;-81
2022/12/08 11:31:56;;;;;;;11.77;7.55;;;2.20;98.50;;;;;;5018259;28;20046;-81
2022/12/08 11:34:42;;;;;;;7.57;6.60;;;2.00;97.50;;;;;;5006631;28;20097;-83
2022/12/08 11:37:20;;;;;;;9.05;6.75;;;2.00;96.40;;;;;;5011107;28;20039;-81
2022/12/08 11:39:51;;;;;;;7.65;6.85;;;2.10;95.80;;;;;;5013001;28;20092;-81
2022/12/08 11:42:23;;;;;;;7.87;7.13;;;2.10;96.20;;;;;;5019589;28;20028;-83
2022/12/08 11:45:06;;;;;;;10.20;6.90;;;2.10;95.10;;;;;;5011834;28;20272;-81
2022/12/08 11:47:48;;;;;;;7.28;6.22;;;2.10;94.40;;;;;;4999838;28;20036;-81
2022/12/08 11:50:31;;;;;;;7.88;6.15;;;2.00;94.20;;;;;;5035663;28;20057;-83
2022/12/08 11:52:58;;;;;;;8.18;5.55;;;2.00;94.10;;;;;;5017473;28;20120;-84
2022/12/08 11:55:42;;;;;;;8.48;7.65;;;2.20;94.30;;;;;;4999242;28;20029;-80
2022/12/08 11:58:20;;;;;;;10.95;6.70;;;2.10;93.80;;;;;;5012730;28;20131;-85
2022/12/08 12:00:47;;;;;;;6.50;5.78;;;2.30;95.30;;;;;;5016593;28;20143;-83
2022/12/08 12:03:31;;;;;;;7.35;6.43;;;2.20;93.80;;;;;;5011560;28;20042;-80
2022/12/08 12:06:03;;;;;;;7.60;6.80;;;2.20;94.40;;;;;;5032968;28;20395;-81
2022/12/08 12:08:51;;;;;;;8.32;5.95;;;2.20;93.80;;;;;;5014059;28;20488;-80
2022/12/08 12:14:46;;;;;;;7.00;6.13;;;2.40;93.00;;;;;;5013645;28;20041;-83
2022/12/08 12:17:45;;;;;;;8.35;6.97;;;2.30;93.60;;;;;;5021288;28;20037;-82
2022/12/08 12:20:14;;;;;;;8.35;7.22;;;2.40;94.00;;;;;;5022418;28;20026;-83
2022/12/08 12:22:42;;;;;;;9.00;6.70;;;2.40;93.60;;;;;;5020087;28;20061;-78
2022/12/08 12:25:22;;;;;;;6.90;5.85;;;2.30;94.00;;;;;;5014876;28;20054;-80
2022/12/08 12:27:50;;;;;;;7.22;6.47;;;2.40;92.80;;;;;;5016112;28;20021;-81
2022/12/08 12:30:50;;;;;;;8.82;7.18;;;2.70;93.10;;;;;;5015571;28;20507;-81
2022/12/08 12:33:18;;;;;;;7.50;5.93;;;3.10;92.20;;;;;;5015237;28;20044;-84
2022/12/08 12:35:48;;;;;;;7.80;7.03;;;3.30;91.50;;;;;;5018183;28;20030;-81
2022/12/08 12:41:06;;;;;;;6.97;6.35;;;3.00;90.10;;;;;;5005290;28;20545;-81
2022/12/08 12:43:34;;;;;;;8.20;6.90;;;2.50;90.50;;;;;;4999032;28;20681;-82
2022/12/08 12:46:21;;;;;;;11.15;7.68;;;2.70;91.40;;;;;;4994252;28;20132;-82
2022/12/08 12:48:47;;;;;;;7.15;6.40;;;2.60;91.80;;;;;;5014644;28;20097;-81
2022/12/08 12:51:35;;;;;;;7.07;6.47;;;2.70;91.90;;;;;;5020313;28;20112;-80
2022/12/08 12:54:21;;;;;;;6.60;5.88;;;2.70;91.60;;;;;;5016712;28;20076;-84
2022/12/08 12:56:49;;;;;;;9.10;7.00;;;2.90;91.60;;;;;;5013794;28;20103;-82
2022/12/08 12:59:30;;;;;;;12.27;6.97;;;3.00;91.50;;;;;;5015531;28;20026;-82
2022/12/08 13:01:56;;;;;;;13.05;8.35;;;3.20;88.80;;;;;;5012418;28;20063;-80
2022/12/08 13:04:35;;;;;;;7.40;6.65;;;2.90;90.30;;;;;;5022853;28;20140;-84
2022/12/08 13:07:01;;;;;;;7.30;6.60;;;2.80;90.20;;;;;;5010643;28;20037;-84